Time;durP1;ratioP1;P1;durP2;ratioP2;P2;SDS_P1;SDS_P2;PMS_P1;PMS_P2;Temp;Humidity;BMP_temperature;BMP_pressure;BME280_temperature;BME280_humidity;BME280_pressure;Samples;Min_cycle;Max_cycle;Signal;HPM_P1;HPM_P2
2021/07/21 00:00:37;;;;;;;3.23;2.93;;;;;;;17.18;92.75;101050.13;5073142;28;20171;-72
2021/07/21 00:03:02;;;;;;;5.83;3.40;;;;;;;17.17;91.45;101049.31;5072928;28;20190;-73
2021/07/21 00:05:29;;;;;;;3.63;3.30;;;;;;;17.18;90.54;101044.59;5073110;28;20194;-73
2021/07/21 00:07:56;;;;;;;4.87;3.03;;;;;;;17.21;90.15;101050.28;5071949;28;20512;-73
2021/07/21 00:10:27;;;;;;;3.60;3.30;;;;;;;17.21;77.49;101044.75;5072857;28;20174;-73
2021/07/21 00:15:53;;;;;;;4.03;3.13;;;;;;;17.15;89.40;101046.09;5072940;28;20208;-73
2021/07/21 00:18:46;;;;;;;3.33;2.90;;;;;;;17.10;89.64;101049.09;5072748;28;20627;-73
2021/07/21 00:21:07;;;;;;;3.40;2.97;;;;;;;17.07;89.97;101048.94;5072403;28;20185;-73
2021/07/21 00:23:32;;;;;;;2.90;2.53;;;;;;;17.08;90.53;101054.13;5073056;28;20171;-73
2021/07/21 00:25:58;;;;;;;3.80;3.43;;;;;;;17.03;90.83;101045.25;5072717;28;20529;-73
2021/07/21 00:28:24;;;;;;;3.70;3.00;;;;;;;17.02;91.57;101049.97;5072633;28;20177;-73
2021/07/21 00:30:49;;;;;;;4.97;3.10;;;;;;;16.99;91.91;101050.66;5072248;28;20171;-73
2021/07/21 00:33:15;;;;;;;5.17;3.70;;;;;;;16.95;91.68;101047.75;5072517;28;20273;-73
2021/07/21 00:35:41;;;;;;;4.60;4.20;;;;;;;16.97;92.30;101041.91;5072533;28;20202;-73
2021/07/21 00:38:06;;;;;;;3.47;3.17;;;;;;;16.97;92.42;101043.84;5072578;28;20652;-73
2021/07/21 00:40:32;;;;;;;3.20;2.90;;;;;;;16.94;92.35;101035.13;5072342;28;20249;-73
2021/07/21 00:42:58;;;;;;;3.63;2.97;;;;;;;16.93;92.35;101043.75;5072695;28;20167;-73
2021/07/21 00:45:24;;;;;;;3.53;3.20;;;;;;;16.93;93.02;101041.78;5072668;28;20185;-73
2021/07/21 00:47:49;;;;;;;4.17;3.30;;;;;;;16.92;92.97;101033.81;5072408;28;20166;-73
2021/07/21 00:50:15;;;;;;;3.07;2.77;;;;;;;16.93;93.22;101035.47;5072145;28;20593;-73
2021/07/21 00:52:42;;;;;;;4.60;4.13;;;;;;;16.90;92.73;101039.69;5071967;28;20171;-73
2021/07/21 00:55:11;;;;;;;3.20;2.90;;;;;;;16.87;93.45;101040.38;5072392;28;20210;-73
2021/07/21 00:57:37;;;;;;;4.37;2.90;;;;;;;16.81;94.44;101035.41;5071634;28;20170;-73
2021/07/21 01:00:09;;;;;;;3.77;3.03;;;;;;;16.77;95.24;101040.78;5071898;28;20580;-72
2021/07/21 01:02:34;;;;;;;3.97;3.47;;;;;;;16.72;95.34;101065.03;5071491;28;20193;-73
2021/07/21 01:05:01;;;;;;;3.60;2.87;;;;;;;16.67;95.75;101049.47;5072144;28;20601;-72
2021/07/21 01:07:26;;;;;;;4.40;3.53;;;;;;;16.66;96.28;101051.41;5071779;28;20185;-73
2021/07/21 01:09:52;;;;;;;3.27;2.97;;;;;;;16.65;95.97;101049.78;5071590;28;20178;-73
2021/07/21 01:12:28;;;;;;;3.67;2.80;;;;;;;16.61;96.05;101054.34;5071432;28;20190;-73
2021/07/21 01:15:06;;;;;;;4.43;2.73;;;;;;;16.59;96.56;101051.13;5071545;28;20253;-73
2021/07/21 01:17:37;;;;;;;4.77;3.07;;;;;;;16.60;97.32;101049.97;5071663;28;20202;-73
2021/07/21 01:20:18;;;;;;;3.40;3.10;;;;;;;16.59;97.43;101053.06;5071585;28;20170;-73
2021/07/21 01:22:46;;;;;;;7.13;3.00;;;;;;;16.58;97.52;101063.31;5071467;28;20179;-73
2021/07/21 01:25:16;;;;;;;5.00;3.03;;;;;;;16.57;97.64;101063.66;5071407;28;20174;-73
2021/07/21 01:27:51;;;;;;;3.60;2.93;;;;;;;16.56;97.95;101068.34;5069906;28;20182;-73
2021/07/21 01:30:22;;;;;;;3.63;3.07;;;;;;;16.57;98.07;101063.66;5070026;28;20209;-73
2021/07/21 01:32:53;;;;;;;2.80;2.60;;;;;;;16.56;98.10;101062.03;5071178;28;20174;-73
2021/07/21 01:35:25;;;;;;;4.10;3.60;;;;;;;16.56;98.20;101062.03;5071247;28;20210;-73
2021/07/21 01:37:58;;;;;;;3.60;3.30;;;;;;;16.60;98.33;101068.47;5071318;28;20265;-73
2021/07/21 01:40:31;;;;;;;3.23;2.93;;;;;;;16.61;97.92;101059.06;5071111;28;20170;-73
2021/07/21 01:42:59;;;;;;;3.37;3.07;;;;;;;16.58;97.33;101073.53;5071085;28;20174;-73
2021/07/21 01:45:28;;;;;;;4.83;3.40;;;;;;;16.54;97.37;101062.38;5070938;28;20171;-73
2021/07/21 01:47:54;;;;;;;4.20;2.97;;;;;;;16.56;97.36;101070.31;5071046;28;20618;-73
2021/07/21 01:50:20;;;;;;;4.30;3.33;;;;;;;16.56;97.78;101068.34;5071036;28;20171;-73
2021/07/21 01:52:48;;;;;;;4.43;3.43;;;;;;;16.55;97.64;101060.41;5069409;28;20203;-72
2021/07/21 01:55:16;;;;;;;3.73;3.43;;;;;;;16.51;97.73;101059.50;5070880;28;20203;-73
2021/07/21 01:57:44;;;;;;;2.80;2.57;;;;;;;16.47;98.36;101059.31;5070655;28;20311;-73
2021/07/21 02:00:12;;;;;;;3.80;3.10;;;;;;;16.36;98.43;101061.69;5070906;28;20175;-73
2021/07/21 02:02:40;;;;;;;3.90;3.33;;;;;;;16.31;98.98;101053.59;5070723;28;20201;-73
2021/07/21 02:05:06;;;;;;;3.40;3.10;;;;;;;16.25;99.07;101059.66;5070854;28;20170;-73
2021/07/21 02:07:34;;;;;;;2.93;2.67;;;;;;;16.22;99.55;101061.16;5070819;28;20791;-73
2021/07/21 02:10:00;;;;;;;4.27;3.87;;;;;;;16.19;99.75;101058.22;5070709;28;20228;-73
2021/07/21 02:12:26;;;;;;;4.97;3.53;;;;;;;16.19;99.87;101056.28;5070781;28;20182;-73
2021/07/21 02:14:52;;;;;;;3.70;3.27;;;;;;;16.22;99.95;101052.88;5070570;28;20342;-73
2021/07/21 02:17:19;;;;;;;3.50;3.10;;;;;;;16.22;100.00;101058.38;5070544;28;20178;-73
2021/07/21 02:19:45;;;;;;;3.47;3.17;;;;;;;16.23;100.00;101060.00;5070506;28;20257;-73
2021/07/21 02:22:16;;;;;;;3.57;3.27;;;;;;;16.22;100.00;101049.31;5070505;28;20580;-73
2021/07/21 02:24:43;;;;;;;4.20;3.67;;;;;;;16.20;100.00;101054.31;5069238;28;20570;-73
2021/07/21 02:27:08;;;;;;;3.40;2.80;;;;;;;16.16;100.00;101056.16;5070597;28;20224;-73
2021/07/21 02:29:34;;;;;;;3.30;2.90;;;;;;;16.13;100.00;101054.06;5070181;28;20167;-73
2021/07/21 02:32:20;;;;;;;4.73;3.53;;;;;;;16.15;100.00;101054.53;5070318;28;20253;-73
2021/07/21 02:34:45;;;;;;;5.50;3.60;;;;;;;16.13;100.00;101049.34;5070409;28;20670;-73
2021/07/21 02:37:19;;;;;;;4.00;3.60;;;;;;;16.16;100.00;101051.44;5070932;28;20248;-73
2021/07/21 02:39:47;;;;;;;3.70;3.13;;;;;;;16.16;100.00;101058.91;5070562;28;20583;-73
2021/07/21 02:42:14;;;;;;;3.83;3.30;;;;;;;16.14;100.00;101050.16;5070248;28;20178;-73
2021/07/21 02:44:43;;;;;;;5.33;3.67;;;;;;;16.15;100.00;101047.06;5070426;28;20182;-73
2021/07/21 02:47:09;;;;;;;4.63;3.50;;;;;;;16.15;100.00;101043.50;5070466;28;20174;-73
2021/07/21 02:49:35;;;;;;;4.00;3.53;;;;;;;16.13;100.00;101048.53;5070123;28;20182;-73
2021/07/21 02:52:09;;;;;;;4.40;3.50;;;;;;;16.10;100.00;101041.75;5070218;28;20220;-74
2021/07/21 02:54:40;;;;;;;7.60;4.33;;;;;;;16.10;100.00;101043.72;5066826;28;20210;-73
2021/07/21 02:57:14;;;;;;;3.53;3.20;;;;;;;16.11;100.00;101050.84;5070112;28;20182;-73
2021/07/21 02:59:43;;;;;;;3.67;3.27;;;;;;;16.12;100.00;101047.75;5069682;28;20185;-73
2021/07/21 03:02:09;;;;;;;4.50;3.60;;;;;;;16.10;100.00;101047.28;5067643;28;20252;-73
2021/07/21 03:04:37;;;;;;;3.80;3.50;;;;;;;16.09;100.00;101047.59;5064455;28;20682;-73
2021/07/21 03:07:03;;;;;;;3.70;3.40;;;;;;;16.09;100.00;101042.09;5069969;28;20709;-73
2021/07/21 03:09:30;;;;;;;3.30;3.00;;;;;;;16.05;100.00;101039.19;5068375;28;20571;-73
2021/07/21 03:11:59;;;;;;;3.90;3.60;;;;;;;16.06;100.00;101046.34;5069693;28;20209;-73
2021/07/21 03:14:25;;;;;;;3.97;3.57;;;;;;;16.04;100.00;101057.66;5070452;28;20207;-73
2021/07/21 03:16:52;;;;;;;3.03;2.73;;;;;;;16.05;100.00;101052.97;5070028;28;20202;-73
2021/07/21 03:19:23;;;;;;;3.93;3.60;;;;;;;16.04;100.00;101057.66;5070022;28;20179;-73
2021/07/21 03:21:50;;;;;;;3.70;3.37;;;;;;;16.05;100.00;101069.50;5070011;28;20159;-73
2021/07/21 03:24:17;;;;;;;3.47;2.63;;;;;;;16.10;100.00;101069.31;5069982;28;20175;-73
2021/07/21 03:26:42;;;;;;;3.43;3.13;;;;;;;16.13;100.00;101065.09;5069930;28;20206;-73
2021/07/21 03:29:08;;;;;;;3.13;2.83;;;;;;;16.11;100.00;101062.66;5069844;28;20324;-73
2021/07/21 03:31:35;;;;;;;4.10;3.70;;;;;;;16.10;100.00;101065.75;5069820;28;20629;-73
2021/07/21 03:34:10;;;;;;;3.90;3.40;;;;;;;16.10;100.00;101072.09;5069916;28;20392;-73
2021/07/21 03:36:39;;;;;;;4.47;3.60;;;;;;;16.10;100.00;101066.56;5069724;28;20309;-73
2021/07/21 03:39:06;;;;;;;11.23;3.90;;;;;;;16.10;100.00;101074.03;5069699;28;20175;-73
2021/07/21 03:41:37;;;;;;;5.30;3.93;;;;;;;16.10;100.00;101072.09;5069775;28;20175;-73
2021/07/21 03:44:07;;;;;;;5.77;3.60;;;;;;;16.12;100.00;101074.50;5073320;28;20174;-73
2021/07/21 03:46:37;;;;;;;5.43;4.03;;;;;;;16.11;100.00;101076.44;5073593;28;20183;-73
2021/07/21 03:49:02;;;;;;;5.10;4.57;;;;;;;16.12;100.00;101075.31;5073282;28;20183;-73
2021/07/21 03:51:36;;;;;;;3.87;3.43;;;;;;;16.10;100.00;101080.34;5073029;28;20178;-72
2021/07/21 03:54:04;;;;;;;4.43;3.83;;;;;;;16.05;100.00;101080.53;5073186;28;20182;-73
2021/07/21 03:56:30;;;;;;;4.03;3.03;;;;;;;16.05;100.00;101084.09;5073010;28;20234;-73
2021/07/21 03:58:56;;;;;;;4.73;4.23;;;;;;;16.07;100.00;101092.06;5072718;28;20280;-73
2021/07/21 04:01:22;;;;;;;4.47;4.07;;;;;;;16.13;100.00;101089.91;5072751;28;20634;-73
2021/07/21 04:03:49;;;;;;;4.17;3.43;;;;;;;16.12;100.00;101077.25;5072986;28;20166;-73
2021/07/21 04:06:17;;;;;;;4.03;3.30;;;;;;;16.11;100.00;101083.91;5072732;28;20182;-73
2021/07/21 04:08:44;;;;;;;5.63;4.33;;;;;;;16.09;100.00;101083.44;5072787;28;20549;-73
2021/07/21 04:11:12;;;;;;;5.87;4.43;;;;;;;16.12;100.00;101094.59;5072691;28;20175;-73
2021/07/21 04:13:40;;;;;;;3.67;3.27;;;;;;;16.14;100.00;101100.59;5073015;28;20261;-73
2021/07/21 04:16:12;;;;;;;4.50;3.97;;;;;;;16.19;100.00;101099.59;5079962;28;20200;-73
2021/07/21 04:18:41;;;;;;;7.40;3.83;;;;;;;16.21;100.00;101105.59;5078967;28;20262;-73
2021/07/21 04:21:08;;;;;;;5.07;4.20;;;;;;;16.25;100.00;101104.59;5074136;28;20265;-73
2021/07/21 04:23:36;;;;;;;4.77;4.27;;;;;;;16.24;100.00;101105.72;5072966;28;20179;-73
2021/07/21 04:26:02;;;;;;;4.30;3.90;;;;;;;16.24;100.00;101102.97;5072994;28;20190;-73
2021/07/21 04:28:28;;;;;;;4.87;3.70;;;;;;;16.23;100.00;101104.13;5072656;28;20178;-73
2021/07/21 04:30:54;;;;;;;4.00;3.60;;;;;;;16.22;100.00;101108.03;5072480;28;20216;-73
2021/07/21 04:33:21;;;;;;;7.80;4.50;;;;;;;16.23;100.00;101108.81;5072906;28;20180;-73
2021/07/21 04:35:48;;;;;;;5.23;4.57;;;;;;;16.26;100.00;101117.22;5072507;28;20731;-73
2021/07/21 04:38:15;;;;;;;5.43;4.43;;;;;;;16.27;100.00;101118.84;5072440;28;20178;-73
2021/07/21 04:40:44;;;;;;;5.57;4.57;;;;;;;16.29;100.00;101110.25;5071114;28;20179;-74
2021/07/21 04:43:10;;;;;;;5.00;3.90;;;;;;;16.30;100.00;101125.63;5072731;28;20626;-73
2021/07/21 04:45:41;;;;;;;6.23;5.10;;;;;;;16.31;100.00;101127.25;5072324;28;20193;-73
2021/07/21 04:48:06;;;;;;;4.20;3.80;;;;;;;16.32;100.00;101132.44;5072284;28;20262;-74
2021/07/21 04:50:32;;;;;;;4.70;4.17;;;;;;;16.38;100.00;101127.56;5072520;28;20269;-73
2021/07/21 04:52:57;;;;;;;4.17;3.63;;;;;;;16.39;100.00;101136.63;5071632;28;20182;-73
2021/07/21 04:55:23;;;;;;;4.17;3.77;;;;;;;16.43;100.00;101138.38;5072039;28;20209;-73
2021/07/21 04:57:49;;;;;;;4.43;4.03;;;;;;;16.43;100.00;101134.81;5070302;28;20269;-73
2021/07/21 05:00:15;;;;;;;5.27;3.90;;;;;;;16.43;100.00;101145.84;5070774;28;20179;-74
2021/07/21 05:02:41;;;;;;;4.90;3.97;;;;;;;16.40;100.00;101141.81;5071690;28;20235;-73
2021/07/21 05:05:08;;;;;;;4.80;4.30;;;;;;;16.40;100.00;101147.31;5071959;28;20177;-73
2021/07/21 05:07:33;;;;;;;4.53;4.00;;;;;;;16.38;100.00;101146.06;5071784;28;20179;-73
2021/07/21 05:09:59;;;;;;;4.00;3.60;;;;;;;16.42;100.00;101147.81;5071726;28;20177;-73
2021/07/21 05:12:24;;;;;;;4.23;3.70;;;;;;;16.47;100.00;101144.03;5070234;28;20613;-73
2021/07/21 05:14:49;;;;;;;4.43;3.83;;;;;;;16.45;100.00;101149.88;5070564;28;20273;-73
2021/07/21 05:17:14;;;;;;;7.67;4.23;;;;;;;16.48;100.00;101156.69;5071709;28;20656;-73
2021/07/21 05:19:40;;;;;;;4.77;4.20;;;;;;;16.51;100.00;101151.31;5071645;28;20426;-73
2021/07/21 05:22:05;;;;;;;5.37;3.90;;;;;;;16.53;100.00;101140.75;5071383;28;20526;-72
2021/07/21 05:24:31;;;;;;;6.00;4.57;;;;;;;16.48;100.00;101153.91;5071473;28;20641;-73
2021/07/21 05:26:56;;;;;;;4.30;3.87;;;;;;;16.47;100.00;101155.88;5071624;28;20198;-73
2021/07/21 05:29:21;;;;;;;5.10;4.47;;;;;;;16.46;100.00;101156.22;5071446;28;20178;-72
2021/07/21 05:31:47;;;;;;;4.93;4.53;;;;;;;16.46;100.00;101154.25;5071233;28;20202;-73
2021/07/21 05:34:12;;;;;;;5.77;4.83;;;;;;;16.42;100.00;101158.03;5071373;28;20495;-73
2021/07/21 05:36:38;;;;;;;5.33;4.60;;;;;;;16.41;100.00;101165.50;5071597;28;20213;-73
2021/07/21 05:39:09;;;;;;;3.93;3.60;;;;;;;16.39;100.00;101156.75;5071099;28;20220;-73
2021/07/21 05:41:35;;;;;;;5.00;4.60;;;;;;;16.41;100.00;101156.41;5070986;28;20167;-73
2021/07/21 05:44:00;;;;;;;4.60;4.07;;;;;;;16.47;100.00;101157.81;5071024;28;20183;-73
2021/07/21 05:46:26;;;;;;;4.57;3.77;;;;;;;16.51;100.00;101159.59;5071130;28;20321;-73
2021/07/21 05:48:51;;;;;;;5.57;4.43;;;;;;;16.47;100.00;101164.16;5071048;28;20563;-74
2021/07/21 05:51:17;;;;;;;5.27;4.27;;;;;;;16.46;100.00;101168.06;5070885;28;20181;-74
2021/07/21 05:53:43;;;;;;;4.63;4.17;;;;;;;16.45;100.00;101169.19;5070563;28;20174;-73
2021/07/21 05:56:15;;;;;;;4.80;4.33;;;;;;;16.49;100.00;101167.41;5070692;28;20217;-75
2021/07/21 05:58:41;;;;;;;5.30;4.80;;;;;;;16.54;100.00;101172.72;5068048;28;20186;-74
2021/07/21 06:01:06;;;;;;;7.40;5.00;;;;;;;16.59;100.00;101172.53;5070816;28;20181;-74
2021/07/21 06:03:32;;;;;;;5.23;4.33;;;;;;;16.62;100.00;101174.59;5070836;28;20186;-74
2021/07/21 06:05:57;;;;;;;4.53;4.13;;;;;;;16.72;100.00;101173.44;5069858;28;20174;-74
2021/07/21 06:08:24;;;;;;;6.90;5.30;;;;;;;16.73;100.00;101174.25;5070778;28;20182;-73
2021/07/21 06:10:49;;;;;;;7.10;5.20;;;;;;;16.72;100.00;101178.97;5070576;28;20175;-72
2021/07/21 06:13:15;;;;;;;4.63;4.13;;;;;;;16.80;100.00;101183.63;5070753;28;20175;-72
2021/07/21 06:15:40;;;;;;;5.97;5.20;;;;;;;16.82;100.00;101184.09;5070586;28;20194;-73
2021/07/21 06:18:06;;;;;;;5.83;4.83;;;;;;;16.85;100.00;101188.13;5070624;28;20421;-73
2021/07/21 06:20:32;;;;;;;4.60;3.83;;;;;;;16.82;99.95;101178.56;5070490;28;20174;-72
2021/07/21 06:22:57;;;;;;;4.87;4.37;;;;;;;16.82;99.99;101184.09;5070336;28;20178;-73
2021/07/21 06:25:23;;;;;;;4.30;3.90;;;;;;;16.84;99.83;101189.28;5070387;28;20205;-73
2021/07/21 06:27:50;;;;;;;6.23;5.03;;;;;;;16.86;99.33;101190.56;5070337;28;20550;-73
2021/07/21 06:30:15;;;;;;;5.50;4.53;;;;;;;16.93;99.58;101201.09;5070387;28;20208;-73
2021/07/21 06:32:41;;;;;;;3.73;3.27;;;;;;;16.95;99.68;101202.34;5070179;28;20214;-73
2021/07/21 06:35:08;;;;;;;5.53;4.43;;;;;;;16.91;98.92;101204.16;5070326;28;20201;-73
2021/07/21 06:37:34;;;;;;;5.27;4.60;;;;;;;16.95;98.77;101204.31;5070142;28;20536;-73
2021/07/21 06:39:59;;;;;;;4.97;4.40;;;;;;;17.06;98.81;101202.75;5070191;28;20181;-72
2021/07/21 06:42:26;;;;;;;4.23;3.83;;;;;;;17.07;98.02;101198.88;5070145;28;20202;-74
2021/07/21 06:44:53;;;;;;;5.93;5.03;;;;;;;17.01;97.80;101211.25;5070146;28;20187;-73
2021/07/21 06:47:20;;;;;;;6.17;4.23;;;;;;;17.01;98.36;101210.44;5070170;28;20170;-73
2021/07/21 06:49:49;;;;;;;4.40;4.00;;;;;;;17.01;98.13;101211.25;5070075;28;20207;-73
2021/07/21 06:52:19;;;;;;;4.50;3.83;;;;;;;16.98;98.34;101205.59;5069930;28;20183;-73
2021/07/21 06:54:44;;;;;;;4.17;3.80;;;;;;;16.96;98.49;101219.72;5069997;28;20267;-73
2021/07/21 06:57:11;;;;;;;4.17;3.77;;;;;;;16.92;98.64;101214.06;5070379;28;20645;-73
2021/07/21 06:59:37;;;;;;;4.30;3.70;;;;;;;16.93;98.66;101225.94;5070264;28;20166;-74
2021/07/21 07:02:03;;;;;;;5.03;4.57;;;;;;;16.97;98.08;101221.34;5069919;28;20186;-73
2021/07/21 07:04:29;;;;;;;4.83;4.43;;;;;;;17.00;97.34;101217.91;5070470;28;20249;-73
2021/07/21 07:06:56;;;;;;;5.10;4.37;;;;;;;17.04;97.56;101223.56;5068700;28;20565;-73
2021/07/21 07:09:21;;;;;;;5.10;4.60;;;;;;;17.10;96.87;101225.00;5068235;28;20186;-73
2021/07/21 07:11:47;;;;;;;4.90;4.27;;;;;;;17.13;96.67;101225.13;5067502;28;20665;-73
2021/07/21 07:14:12;;;;;;;4.77;4.27;;;;;;;17.23;97.40;101221.97;5069562;28;20265;-73
2021/07/21 07:16:38;;;;;;;3.50;3.20;;;;;;;17.20;96.34;101221.81;5071177;28;20272;-73
2021/07/21 07:19:03;;;;;;;7.27;4.50;;;;;;;17.22;96.33;101223.09;5073452;28;20683;-73
2021/07/21 07:21:29;;;;;;;7.27;3.77;;;;;;;17.27;95.97;101213.81;5073497;28;20175;-73
2021/07/21 07:23:57;;;;;;;5.67;5.13;;;;;;;17.35;94.93;101225.91;5073831;28;20599;-73
2021/07/21 07:26:23;;;;;;;5.30;4.40;;;;;;;17.44;95.44;101218.38;5073514;28;20171;-73
2021/07/21 07:28:50;;;;;;;4.73;4.33;;;;;;;17.47;94.98;101226.78;5073453;28;20185;-73
2021/07/21 07:31:16;;;;;;;5.07;4.00;;;;;;;17.47;94.31;101221.25;5073100;28;20167;-73
2021/07/21 07:33:41;;;;;;;6.53;4.27;;;;;;;17.54;94.65;101224.28;5073372;28;20185;-73
2021/07/21 07:36:07;;;;;;;4.33;3.93;;;;;;;17.61;94.67;101223.72;5073411;28;20568;-73
2021/07/21 07:38:32;;;;;;;4.40;3.80;;;;;;;17.67;93.30;101221.56;5073491;28;20202;-73
2021/07/21 07:40:57;;;;;;;5.37;4.87;;;;;;;17.73;93.34;101218.28;5073129;28;20416;-73
2021/07/21 07:43:23;;;;;;;4.90;4.10;;;;;;;17.80;93.40;101220.50;5073207;28;20181;-73
2021/07/21 07:45:48;;;;;;;6.17;4.47;;;;;;;17.77;93.05;101216.44;5073319;28;20249;-73
2021/07/21 07:48:14;;;;;;;4.53;3.90;;;;;;;17.79;93.72;101219.69;5073194;28;20205;-73
2021/07/21 07:50:39;;;;;;;3.47;3.17;;;;;;;17.73;92.82;101225.75;5072930;28;20182;-72
2021/07/21 07:53:05;;;;;;;4.80;4.07;;;;;;;17.73;92.63;101217.47;5072954;28;20175;-73
2021/07/21 07:55:35;;;;;;;6.07;4.13;;;;;;;17.81;93.50;101220.16;5073017;28;20275;-74
2021/07/21 07:58:01;;;;;;;4.50;4.10;;;;;;;17.88;92.54;101214.06;5072988;28;20465;-74
2021/07/21 08:00:26;;;;;;;4.80;3.80;;;;;;;17.97;91.14;101219.50;5072954;28;20701;-73
2021/07/21 08:02:52;;;;;;;4.50;3.70;;;;;;;17.95;91.30;101222.63;5072483;28;20184;-73
2021/07/21 08:05:17;;;;;;;5.10;3.60;;;;;;;17.97;91.67;101217.53;5072964;28;20178;-73
2021/07/21 08:07:42;;;;;;;3.73;3.23;;;;;;;18.03;90.92;101221.69;5072884;28;20599;-73
2021/07/21 08:10:13;;;;;;;4.37;3.10;;;;;;;18.00;87.59;101221.56;5072469;28;20565;-73
2021/07/21 08:12:39;;;;;;;3.17;2.80;;;;;;;18.04;88.21;101220.53;5068805;28;20219;-73
2021/07/21 08:15:05;;;;;;;4.10;3.57;;;;;;;18.08;88.90;101215.97;5072449;28;20253;-73
2021/07/21 08:17:30;;;;;;;2.63;2.43;;;;;;;18.16;88.87;101225.28;5072693;28;20182;-72
2021/07/21 08:19:55;;;;;;;2.93;2.67;;;;;;;18.13;88.12;101221.25;5072666;28;20175;-73
2021/07/21 08:22:21;;;;;;;3.77;3.20;;;;;;;18.16;88.37;101224.47;5072569;28;20249;-73
2021/07/21 08:24:46;;;;;;;3.53;3.23;;;;;;;18.20;87.99;101228.97;5072767;28;20455;-73
2021/07/21 08:27:11;;;;;;;3.37;3.07;;;;;;;18.28;88.03;101218.97;5072423;28;20174;-73
2021/07/21 08:29:37;;;;;;;3.07;2.70;;;;;;;18.30;88.18;101223.00;5071654;28;20186;-73
2021/07/21 08:32:04;;;;;;;4.10;3.70;;;;;;;18.34;87.19;101228.66;5069363;28;20170;-73
2021/07/21 08:34:29;;;;;;;5.47;2.97;;;;;;;18.46;87.21;101225.88;5068451;28;20221;-74
2021/07/21 08:36:54;;;;;;;3.77;3.37;;;;;;;18.51;85.85;101225.66;5071587;28;20244;-73
2021/07/21 08:39:20;;;;;;;3.63;2.90;;;;;;;18.46;85.01;101223.13;5070473;28;20219;-73
2021/07/21 08:41:45;;;;;;;3.47;3.17;;;;;;;18.49;85.98;101230.72;5071963;28;20179;-73
2021/07/21 08:44:14;;;;;;;2.57;2.33;;;;;;;18.53;83.92;101220.59;5071945;28;20645;-73
2021/07/21 08:46:40;;;;;;;2.40;2.20;;;;;;;18.60;83.84;101226.34;5072050;28;20261;-73
2021/07/21 08:49:07;;;;;;;3.53;3.07;;;;;;;18.68;83.36;101225.47;5071620;28;20175;-74
2021/07/21 08:51:34;;;;;;;3.33;2.77;;;;;;;18.73;84.45;101224.41;5071859;28;20174;-73
2021/07/21 08:54:00;;;;;;;3.00;2.80;;;;;;;18.62;84.51;101229.56;5072038;28;20170;-73
2021/07/21 08:56:26;;;;;;;3.00;2.80;;;;;;;18.71;85.03;101224.78;5071917;28;20688;-73
2021/07/21 08:58:51;;;;;;;3.47;2.47;;;;;;;18.77;83.25;101230.06;5072046;28;20262;-73
2021/07/21 09:01:18;;;;;;;3.20;2.90;;;;;;;18.95;83.54;101240.56;5071689;28;20252;-73
2021/07/21 09:03:44;;;;;;;2.93;2.63;;;;;;;19.03;82.94;101239.59;5071857;28;20166;-73
2021/07/21 09:06:13;;;;;;;3.13;2.83;;;;;;;18.98;82.51;101239.06;5072189;28;20189;-73
2021/07/21 09:08:39;;;;;;;2.80;2.60;;;;;;;19.09;83.39;101234.63;5071619;28;20239;-73
2021/07/21 09:11:05;;;;;;;3.40;2.70;;;;;;;19.23;83.47;101234.25;5071438;28;20622;-73
2021/07/21 09:13:33;;;;;;;2.63;2.43;;;;;;;19.20;82.56;101232.19;5071779;28;20189;-73
2021/07/21 09:15:59;;;;;;;6.33;3.17;;;;;;;19.21;82.27;101236.56;5071444;28;20202;-73
2021/07/21 09:18:28;;;;;;;3.33;2.83;;;;;;;19.27;82.05;101244.28;5071505;28;20179;-73
2021/07/21 09:20:56;;;;;;;4.50;2.67;;;;;;;19.16;82.33;101236.81;5071217;28;20181;-73
2021/07/21 09:23:24;;;;;;;3.27;2.63;;;;;;;19.20;82.53;101240.50;5063900;28;20190;-77
2021/07/21 09:25:49;;;;;;;3.03;2.80;;;;;;;19.23;82.45;101237.00;5071237;28;20170;-73
2021/07/21 09:28:16;;;;;;;3.03;2.60;;;;;;;19.11;82.14;101235.09;5071469;28;20296;-73
2021/07/21 09:30:45;;;;;;;3.93;3.47;;;;;;;19.03;84.00;101245.16;5071220;28;20417;-73
2021/07/21 09:33:13;;;;;;;3.40;3.10;;;;;;;18.95;82.08;101232.25;5071052;28;20608;-73
2021/07/21 09:35:40;;;;;;;3.73;2.73;;;;;;;19.02;82.08;101237.19;5071289;28;20285;-73
2021/07/21 09:38:19;;;;;;;3.10;2.80;;;;;;;19.01;83.54;101235.56;5070879;28;20645;-73
2021/07/21 09:40:50;;;;;;;3.73;3.43;;;;;;;18.97;83.78;101232.72;5067297;28;20182;-73
2021/07/21 09:43:19;;;;;;;2.93;2.53;;;;;;;19.00;84.15;101240.31;5071019;28;20182;-73
2021/07/21 09:45:46;;;;;;;3.50;2.80;;;;;;;19.15;83.84;101238.78;5071173;28;20170;-73
2021/07/21 09:48:13;;;;;;;3.10;2.90;;;;;;;19.22;83.21;101238.97;5070849;28;20179;-73
2021/07/21 09:50:40;;;;;;;3.50;2.93;;;;;;;19.40;83.91;101236.75;5070969;28;20189;-73
2021/07/21 09:53:10;;;;;;;3.87;2.67;;;;;;;19.49;80.86;101234.63;5071238;28;20544;-73
2021/07/21 09:55:36;;;;;;;3.10;2.77;;;;;;;19.44;80.65;101236.84;5070830;28;20332;-73
2021/07/21 09:58:26;;;;;;;3.87;3.47;;;;;;;19.40;80.55;101233.97;5070869;28;20257;-73
2021/07/21 10:00:51;;;;;;;3.60;3.30;;;;;;;19.45;80.45;101238.47;5070683;28;20229;-73
2021/07/21 10:03:24;;;;;;;6.90;2.97;;;;;;;19.38;80.94;101229.91;5070813;28;20701;-73
2021/07/21 10:06:01;;;;;;;2.93;2.63;;;;;;;19.44;81.52;101232.09;5070858;28;20173;-73
2021/07/21 10:08:44;;;;;;;2.97;2.73;;;;;;;19.51;79.76;101235.06;5069906;28;20549;-73
2021/07/21 10:11:23;;;;;;;2.93;2.43;;;;;;;19.69;79.49;101232.84;5070734;28;20163;-73
2021/07/21 10:13:55;;;;;;;2.90;2.60;;;;;;;19.80;77.58;101233.13;5070689;28;20170;-74
2021/07/21 10:16:33;;;;;;;3.80;2.87;;;;;;;19.85;76.35;101232.88;5071170;28;20277;-73
2021/07/21 10:19:11;;;;;;;5.63;3.00;;;;;;;19.78;76.68;101239.03;5078611;28;20536;-73
2021/07/21 10:21:39;;;;;;;3.90;2.93;;;;;;;19.76;75.74;101238.59;5071184;28;20170;-73
2021/07/21 10:24:06;;;;;;;2.73;2.53;;;;;;;19.77;76.31;101240.19;5071294;28;20646;-73
2021/07/21 10:26:32;;;;;;;4.63;2.50;;;;;;;19.72;76.86;101231.34;5070700;28;20257;-73
2021/07/21 10:28:59;;;;;;;2.80;2.57;;;;;;;19.66;78.79;101229.97;5071103;28;20235;-73
2021/07/21 10:31:25;;;;;;;5.57;2.83;;;;;;;19.58;76.91;101231.75;5070537;28;20533;-73
2021/07/21 10:33:52;;;;;;;3.30;3.00;;;;;;;19.53;77.30;101229.19;5070795;28;20174;-73
2021/07/21 10:36:19;;;;;;;3.43;2.87;;;;;;;19.57;77.90;101230.94;5070216;28;20194;-73
2021/07/21 10:38:45;;;;;;;4.97;3.23;;;;;;;19.61;78.82;101226.28;5070092;28;20174;-73
2021/07/21 10:41:13;;;;;;;3.90;2.67;;;;;;;19.53;79.25;101221.69;5070151;28;20529;-73
2021/07/21 10:43:48;;;;;;;3.30;2.90;;;;;;;19.49;78.85;101223.53;5066711;28;20244;-73
2021/07/21 10:46:38;;;;;;;3.23;2.93;;;;;;;19.32;79.21;101223.84;5069757;28;20653;-73
2021/07/21 11:00:58;;;;;;;3.20;2.90;;;;;;;19.03;83.29;101223.00;5074175;28;20204;-73
2021/07/21 11:03:31;;;;;;;3.97;3.57;;;;;;;19.10;82.06;101227.16;5074231;28;20182;-73
2021/07/21 11:06:02;;;;;;;4.07;3.30;;;;;;;19.14;80.16;101225.28;5074033;28;20158;-73
2021/07/21 11:08:29;;;;;;;6.07;4.40;;;;;;;19.14;80.39;101226.09;5072470;28;20178;-73
2021/07/21 11:11:17;;;;;;;5.00;3.40;;;;;;;19.16;80.46;101221.00;5072457;28;20178;-73
2021/07/21 11:13:42;;;;;;;4.07;3.43;;;;;;;19.19;80.31;101227.78;5073065;28;20178;-73
2021/07/21 11:16:38;;;;;;;4.27;3.87;;;;;;;19.27;79.77;101224.09;5072979;28;20255;-73
2021/07/21 11:19:22;;;;;;;3.67;3.33;;;;;;;19.33;79.66;101229.03;5073485;28;20198;-73
2021/07/21 11:22:19;;;;;;;3.87;3.10;;;;;;;19.30;79.00;101226.97;5073514;28;20453;-73
2021/07/21 11:25:03;;;;;;;4.03;3.43;;;;;;;19.26;80.48;101225.25;5045567;28;20693;-73
2021/07/21 11:27:47;;;;;;;3.67;3.37;;;;;;;19.21;80.72;101231.81;5073570;28;20178;-73
2021/07/21 11:30:32;;;;;;;4.67;3.47;;;;;;;19.22;79.51;101227.91;5073624;28;20166;-73
2021/07/21 11:32:57;;;;;;;3.57;3.10;;;;;;;19.22;79.47;101224.31;5067965;28;20721;-73
2021/07/21 11:35:42;;;;;;;4.33;3.77;;;;;;;19.26;75.75;101225.25;5072104;28;20273;-72
2021/07/21 11:38:18;;;;;;;3.80;2.97;;;;;;;19.35;75.37;101217.59;5071599;28;20179;-73
2021/07/21 11:40:45;;;;;;;4.07;3.67;;;;;;;19.48;76.83;101218.34;5064746;28;20572;-73